sensor_id;sensor_type;location;lat;lon;timestamp;temperature;humidity
21259;DHT22;10787;53.364;-1.480;2023-02-19T00:01:41;9.80;99.90
21259;DHT22;10787;53.364;-1.480;2023-02-19T00:04:18;9.80;99.90
21259;DHT22;10787;53.364;-1.480;2023-02-19T00:06:45;9.80;99.90
21259;DHT22;10787;53.364;-1.480;2023-02-19T00:09:12;9.80;99.90
21259;DHT22;10787;53.364;-1.480;2023-02-19T00:11:39;9.80;99.90
21259;DHT22;10787;53.364;-1.480;2023-02-19T00:14:06;9.90;99.90
21259;DHT22;10787;53.364;-1.480;2023-02-19T00:16:34;9.90;99.90
21259;DHT22;10787;53.364;-1.480;2023-02-19T00:19:02;9.80;99.90
21259;DHT22;10787;53.364;-1.480;2023-02-19T00:21:28;9.80;99.90
21259;DHT22;10787;53.364;-1.480;2023-02-19T00:23:57;9.80;99.90
21259;DHT22;10787;53.364;-1.480;2023-02-19T00:26:24;9.80;99.90
21259;DHT22;10787;53.364;-1.480;2023-02-19T00:28:51;9.80;99.90
21259;DHT22;10787;53.364;-1.480;2023-02-19T00:33:47;9.90;99.90
21259;DHT22;10787;53.364;-1.480;2023-02-19T00:36:13;9.90;99.90
21259;DHT22;10787;53.364;-1.480;2023-02-19T00:38:40;9.90;99.90
21259;DHT22;10787;53.364;-1.480;2023-02-19T00:41:07;9.90;99.90
21259;DHT22;10787;53.364;-1.480;2023-02-19T00:43:51;9.90;99.90
21259;DHT22;10787;53.364;-1.480;2023-02-19T00:46:23;9.90;99.90
21259;DHT22;10787;53.364;-1.480;2023-02-19T00:48:49;9.90;99.90
21259;DHT22;10787;53.364;-1.480;2023-02-19T00:51:17;9.90;99.90
21259;DHT22;10787;53.364;-1.480;2023-02-19T00:53:43;9.90;99.90
21259;DHT22;10787;53.364;-1.480;2023-02-19T00:56:09;9.90;99.90
21259;DHT22;10787;53.364;-1.480;2023-02-19T00:58:36;9.90;99.90
21259;DHT22;10787;53.364;-1.480;2023-02-19T01:01:02;9.90;99.90
21259;DHT22;10787;53.364;-1.480;2023-02-19T01:03:28;9.90;99.90
21259;DHT22;10787;53.364;-1.480;2023-02-19T01:05:54;9.90;99.90
21259;DHT22;10787;53.364;-1.480;2023-02-19T01:08:20;9.90;99.90
21259;DHT22;10787;53.364;-1.480;2023-02-19T01:10:46;9.90;99.90
21259;DHT22;10787;53.364;-1.480;2023-02-19T01:13:12;9.90;99.90
21259;DHT22;10787;53.364;-1.480;2023-02-19T01:15:38;9.90;99.90
21259;DHT22;10787;53.364;-1.480;2023-02-19T01:18:04;9.90;99.90
21259;DHT22;10787;53.364;-1.480;2023-02-19T01:20:30;9.90;99.90
21259;DHT22;10787;53.364;-1.480;2023-02-19T01:22:56;9.90;99.90
21259;DHT22;10787;53.364;-1.480;2023-02-19T01:25:22;9.90;99.90
21259;DHT22;10787;53.364;-1.480;2023-02-19T01:27:48;9.90;99.90
21259;DHT22;10787;53.364;-1.480;2023-02-19T01:30:13;9.90;99.90
21259;DHT22;10787;53.364;-1.480;2023-02-19T01:32:42;9.80;99.90
21259;DHT22;10787;53.364;-1.480;2023-02-19T01:35:08;9.80;99.90
21259;DHT22;10787;53.364;-1.480;2023-02-19T01:37:34;9.80;99.90
21259;DHT22;10787;53.364;-1.480;2023-02-19T01:39:59;9.80;99.90
21259;DHT22;10787;53.364;-1.480;2023-02-19T01:42:25;9.80;99.90
21259;DHT22;10787;53.364;-1.480;2023-02-19T01:45:27;9.80;99.90
21259;DHT22;10787;53.364;-1.480;2023-02-19T01:48:15;9.80;99.90
21259;DHT22;10787;53.364;-1.480;2023-02-19T01:50:49;9.70;99.90
21259;DHT22;10787;53.364;-1.480;2023-02-19T01:53:20;9.70;99.90
21259;DHT22;10787;53.364;-1.480;2023-02-19T01:55:49;9.60;99.90
21259;DHT22;10787;53.364;-1.480;2023-02-19T01:58:17;9.50;99.90
21259;DHT22;10787;53.364;-1.480;2023-02-19T02:00:43;9.30;99.90
21259;DHT22;10787;53.364;-1.480;2023-02-19T02:03:09;9.10;99.90
21259;DHT22;10787;53.364;-1.480;2023-02-19T02:08:04;8.90;99.90
21259;DHT22;10787;53.364;-1.480;2023-02-19T02:10:49;8.90;99.90
21259;DHT22;10787;53.364;-1.480;2023-02-19T02:13:15;8.80;99.90
21259;DHT22;10787;53.364;-1.480;2023-02-19T02:18:58;8.60;99.90
21259;DHT22;10787;53.364;-1.480;2023-02-19T02:32:16;8.30;99.90
21259;DHT22;10787;53.364;-1.480;2023-02-19T02:34:55;8.20;99.90
21259;DHT22;10787;53.364;-1.480;2023-02-19T02:37:24;8.10;99.90
21259;DHT22;10787;53.364;-1.480;2023-02-19T02:39:52;8.10;99.90
21259;DHT22;10787;53.364;-1.480;2023-02-19T02:42:19;8.00;99.90
21259;DHT22;10787;53.364;-1.480;2023-02-19T02:44:54;7.90;99.90
21259;DHT22;10787;53.364;-1.480;2023-02-19T02:47:48;7.90;99.90
21259;DHT22;10787;53.364;-1.480;2023-02-19T02:50:19;7.90;99.90
21259;DHT22;10787;53.364;-1.480;2023-02-19T02:52:49;7.80;99.90
21259;DHT22;10787;53.364;-1.480;2023-02-19T02:55:38;7.70;99.90
21259;DHT22;10787;53.364;-1.480;2023-02-19T02:58:06;7.60;99.90
21259;DHT22;10787;53.364;-1.480;2023-02-19T03:00:33;7.60;99.90
21259;DHT22;10787;53.364;-1.480;2023-02-19T03:03:20;7.50;99.90
21259;DHT22;10787;53.364;-1.480;2023-02-19T03:05:48;7.50;99.90
21259;DHT22;10787;53.364;-1.480;2023-02-19T03:11:30;7.40;99.90
21259;DHT22;10787;53.364;-1.480;2023-02-19T03:14:19;7.30;99.90
21259;DHT22;10787;53.364;-1.480;2023-02-19T03:17:13;7.20;99.90
21259;DHT22;10787;53.364;-1.480;2023-02-19T03:20:00;7.20;99.90
21259;DHT22;10787;53.364;-1.480;2023-02-19T03:22:33;7.20;99.90
21259;DHT22;10787;53.364;-1.480;2023-02-19T03:27:57;7.10;99.90
21259;DHT22;10787;53.364;-1.480;2023-02-19T03:30:28;7.00;99.90
21259;DHT22;10787;53.364;-1.480;2023-02-19T03:33:06;7.00;99.90
21259;DHT22;10787;53.364;-1.480;2023-02-19T03:35:46;7.00;99.90
21259;DHT22;10787;53.364;-1.480;2023-02-19T03:38:19;6.90;99.90
21259;DHT22;10787;53.364;-1.480;2023-02-19T03:40:58;6.90;99.90
21259;DHT22;10787;53.364;-1.480;2023-02-19T03:43:47;6.90;99.90
21259;DHT22;10787;53.364;-1.480;2023-02-19T03:46:24;7.00;99.90
21259;DHT22;10787;53.364;-1.480;2023-02-19T03:49:06;7.00;99.90
21259;DHT22;10787;53.364;-1.480;2023-02-19T03:51:44;7.10;99.90
21259;DHT22;10787;53.364;-1.480;2023-02-19T03:54:18;7.10;99.90
21259;DHT22;10787;53.364;-1.480;2023-02-19T03:56:53;7.20;99.90
21259;DHT22;10787;53.364;-1.480;2023-02-19T04:05:12;7.30;99.90
21259;DHT22;10787;53.364;-1.480;2023-02-19T04:07:43;7.30;99.90
21259;DHT22;10787;53.364;-1.480;2023-02-19T04:10:09;7.30;99.90
21259;DHT22;10787;53.364;-1.480;2023-02-19T04:12:38;7.20;99.90
21259;DHT22;10787;53.364;-1.480;2023-02-19T04:15:09;7.20;99.90
21259;DHT22;10787;53.364;-1.480;2023-02-19T04:17:46;7.20;99.90
21259;DHT22;10787;53.364;-1.480;2023-02-19T04:20:16;7.10;99.90
21259;DHT22;10787;53.364;-1.480;2023-02-19T04:22:43;7.00;99.90
21259;DHT22;10787;53.364;-1.480;2023-02-19T04:25:09;6.90;99.90
21259;DHT22;10787;53.364;-1.480;2023-02-19T04:27:37;6.90;99.90
21259;DHT22;10787;53.364;-1.480;2023-02-19T04:30:05;6.90;99.90
21259;DHT22;10787;53.364;-1.480;2023-02-19T04:32:31;6.80;99.90
21259;DHT22;10787;53.364;-1.480;2023-02-19T04:34:57;6.80;99.90
21259;DHT22;10787;53.364;-1.480;2023-02-19T04:37:22;6.80;99.90
21259;DHT22;10787;53.364;-1.480;2023-02-19T04:39:48;6.80;99.90
21259;DHT22;10787;53.364;-1.480;2023-02-19T04:42:14;6.70;99.90
21259;DHT22;10787;53.364;-1.480;2023-02-19T04:44:40;6.70;99.90
21259;DHT22;10787;53.364;-1.480;2023-02-19T04:47:05;6.70;99.90
21259;DHT22;10787;53.364;-1.480;2023-02-19T04:49:31;6.70;99.90
21259;DHT22;10787;53.364;-1.480;2023-02-19T04:51:57;6.70;99.90
21259;DHT22;10787;53.364;-1.480;2023-02-19T04:54:22;6.70;99.90
21259;DHT22;10787;53.364;-1.480;2023-02-19T04:56:48;6.70;99.90
21259;DHT22;10787;53.364;-1.480;2023-02-19T04:59:15;6.70;99.90
21259;DHT22;10787;53.364;-1.480;2023-02-19T05:01:41;6.70;99.90
21259;DHT22;10787;53.364;-1.480;2023-02-19T05:04:07;6.70;99.90
21259;DHT22;10787;53.364;-1.480;2023-02-19T05:06:33;6.70;99.90
21259;DHT22;10787;53.364;-1.480;2023-02-19T05:08:58;6.70;99.90
21259;DHT22;10787;53.364;-1.480;2023-02-19T05:11:24;6.70;99.90
21259;DHT22;10787;53.364;-1.480;2023-02-19T05:13:50;6.70;99.90
21259;DHT22;10787;53.364;-1.480;2023-02-19T05:16:16;6.70;99.90
21259;DHT22;10787;53.364;-1.480;2023-02-19T05:18:44;6.70;99.90
21259;DHT22;10787;53.364;-1.480;2023-02-19T05:21:10;6.70;99.90
21259;DHT22;10787;53.364;-1.480;2023-02-19T05:23:36;6.70;99.90
21259;DHT22;10787;53.364;-1.480;2023-02-19T05:26:12;6.70;99.90
21259;DHT22;10787;53.364;-1.480;2023-02-19T05:28:38;6.60;99.90
21259;DHT22;10787;53.364;-1.480;2023-02-19T05:31:05;6.60;99.90
21259;DHT22;10787;53.364;-1.480;2023-02-19T05:33:32;6.60;99.90
21259;DHT22;10787;53.364;-1.480;2023-02-19T05:35:57;6.70;99.90
21259;DHT22;10787;53.364;-1.480;2023-02-19T05:38:23;6.70;99.90
21259;DHT22;10787;53.364;-1.480;2023-02-19T05:40:49;6.60;99.90
21259;DHT22;10787;53.364;-1.480;2023-02-19T05:43:16;6.60;99.90
21259;DHT22;10787;53.364;-1.480;2023-02-19T05:45:42;6.70;99.90
21259;DHT22;10787;53.364;-1.480;2023-02-19T05:48:09;6.60;99.90
21259;DHT22;10787;53.364;-1.480;2023-02-19T05:50:35;6.70;99.90
21259;DHT22;10787;53.364;-1.480;2023-02-19T05:53:04;6.70;99.90
21259;DHT22;10787;53.364;-1.480;2023-02-19T05:55:33;6.70;99.90
21259;DHT22;10787;53.364;-1.480;2023-02-19T05:58:00;6.70;99.90
21259;DHT22;10787;53.364;-1.480;2023-02-19T06:00:26;6.70;99.90
21259;DHT22;10787;53.364;-1.480;2023-02-19T06:02:52;6.70;99.90
21259;DHT22;10787;53.364;-1.480;2023-02-19T06:05:19;6.80;99.90
21259;DHT22;10787;53.364;-1.480;2023-02-19T06:07:44;6.80;99.90
21259;DHT22;10787;53.364;-1.480;2023-02-19T06:10:15;6.80;99.90
21259;DHT22;10787;53.364;-1.480;2023-02-19T06:12:41;6.80;99.90
21259;DHT22;10787;53.364;-1.480;2023-02-19T06:15:07;6.80;99.90
21259;DHT22;10787;53.364;-1.480;2023-02-19T06:17:33;6.80;99.90
21259;DHT22;10787;53.364;-1.480;2023-02-19T06:20:00;6.80;99.90
21259;DHT22;10787;53.364;-1.480;2023-02-19T06:22:26;6.80;99.90
21259;DHT22;10787;53.364;-1.480;2023-02-19T06:24:52;6.80;99.90
21259;DHT22;10787;53.364;-1.480;2023-02-19T06:27:18;6.80;99.90
21259;DHT22;10787;53.364;-1.480;2023-02-19T06:29:43;6.80;99.90
21259;DHT22;10787;53.364;-1.480;2023-02-19T06:32:09;6.80;99.90
21259;DHT22;10787;53.364;-1.480;2023-02-19T06:34:35;6.80;99.90
21259;DHT22;10787;53.364;-1.480;2023-02-19T06:37:01;6.80;99.90
21259;DHT22;10787;53.364;-1.480;2023-02-19T06:39:27;6.70;99.90
21259;DHT22;10787;53.364;-1.480;2023-02-19T06:42:08;6.70;99.90
21259;DHT22;10787;53.364;-1.480;2023-02-19T06:44:34;6.60;99.90
21259;DHT22;10787;53.364;-1.480;2023-02-19T06:47:00;6.60;99.90
21259;DHT22;10787;53.364;-1.480;2023-02-19T06:49:26;6.50;99.90
21259;DHT22;10787;53.364;-1.480;2023-02-19T06:51:51;6.50;99.90
21259;DHT22;10787;53.364;-1.480;2023-02-19T06:54:17;6.40;99.90
21259;DHT22;10787;53.364;-1.480;2023-02-19T06:56:43;6.40;99.90
21259;DHT22;10787;53.364;-1.480;2023-02-19T06:59:12;6.40;99.90
21259;DHT22;10787;53.364;-1.480;2023-02-19T07:01:38;6.40;99.90
21259;DHT22;10787;53.364;-1.480;2023-02-19T07:04:05;6.30;99.90
21259;DHT22;10787;53.364;-1.480;2023-02-19T07:06:32;6.30;99.90
21259;DHT22;10787;53.364;-1.480;2023-02-19T07:08:59;6.20;99.90
21259;DHT22;10787;53.364;-1.480;2023-02-19T07:11:25;6.10;99.90
21259;DHT22;10787;53.364;-1.480;2023-02-19T07:13:54;6.10;99.90
21259;DHT22;10787;53.364;-1.480;2023-02-19T07:16:20;6.00;99.90
21259;DHT22;10787;53.364;-1.480;2023-02-19T07:18:46;6.00;99.90
21259;DHT22;10787;53.364;-1.480;2023-02-19T07:21:13;6.00;99.90
21259;DHT22;10787;53.364;-1.480;2023-02-19T07:23:41;6.00;99.90
21259;DHT22;10787;53.364;-1.480;2023-02-19T07:26:17;6.00;99.90
21259;DHT22;10787;53.364;-1.480;2023-02-19T07:28:45;6.00;99.90
21259;DHT22;10787;53.364;-1.480;2023-02-19T07:31:11;6.00;99.90
21259;DHT22;10787;53.364;-1.480;2023-02-19T07:33:37;6.00;99.90
21259;DHT22;10787;53.364;-1.480;2023-02-19T07:36:06;6.00;99.90
21259;DHT22;10787;53.364;-1.480;2023-02-19T07:38:32;6.00;99.90
21259;DHT22;10787;53.364;-1.480;2023-02-19T07:41:00;5.90;99.90
21259;DHT22;10787;53.364;-1.480;2023-02-19T07:43:28;5.90;99.90
21259;DHT22;10787;53.364;-1.480;2023-02-19T07:45:54;6.00;99.90
21259;DHT22;10787;53.364;-1.480;2023-02-19T07:48:20;6.00;99.90
21259;DHT22;10787;53.364;-1.480;2023-02-19T07:50:53;6.00;99.90
21259;DHT22;10787;53.364;-1.480;2023-02-19T07:53:19;6.00;99.90
21259;DHT22;10787;53.364;-1.480;2023-02-19T07:55:45;6.10;99.90
21259;DHT22;10787;53.364;-1.480;2023-02-19T07:58:11;6.20;99.90
21259;DHT22;10787;53.364;-1.480;2023-02-19T08:00:37;6.20;99.90
21259;DHT22;10787;53.364;-1.480;2023-02-19T08:03:03;6.30;99.90
21259;DHT22;10787;53.364;-1.480;2023-02-19T08:05:36;6.40;99.90
21259;DHT22;10787;53.364;-1.480;2023-02-19T08:08:06;6.50;99.90
21259;DHT22;10787;53.364;-1.480;2023-02-19T08:10:32;6.50;99.90
21259;DHT22;10787;53.364;-1.480;2023-02-19T08:13:17;6.70;99.90
21259;DHT22;10787;53.364;-1.480;2023-02-19T08:18:25;6.90;99.90
21259;DHT22;10787;53.364;-1.480;2023-02-19T08:20:53;7.00;99.90
21259;DHT22;10787;53.364;-1.480;2023-02-19T08:23:19;7.10;99.90
21259;DHT22;10787;53.364;-1.480;2023-02-19T08:25:48;7.30;99.90
21259;DHT22;10787;53.364;-1.480;2023-02-19T08:28:15;7.40;99.90
21259;DHT22;10787;53.364;-1.480;2023-02-19T08:30:43;7.40;99.90
21259;DHT22;10787;53.364;-1.480;2023-02-19T08:33:12;7.50;99.90
21259;DHT22;10787;53.364;-1.480;2023-02-19T08:35:38;7.60;99.90
21259;DHT22;10787;53.364;-1.480;2023-02-19T08:38:05;7.60;99.90
21259;DHT22;10787;53.364;-1.480;2023-02-19T08:40:31;7.60;99.90
21259;DHT22;10787;53.364;-1.480;2023-02-19T08:43:08;7.60;99.90
21259;DHT22;10787;53.364;-1.480;2023-02-19T08:45:36;7.70;99.90
21259;DHT22;10787;53.364;-1.480;2023-02-19T08:48:02;7.70;99.90
21259;DHT22;10787;53.364;-1.480;2023-02-19T08:50:28;7.70;99.90
21259;DHT22;10787;53.364;-1.480;2023-02-19T08:52:54;7.70;99.90
21259;DHT22;10787;53.364;-1.480;2023-02-19T08:55:20;7.70;99.90
21259;DHT22;10787;53.364;-1.480;2023-02-19T08:57:46;7.70;99.90
21259;DHT22;10787;53.364;-1.480;2023-02-19T09:00:12;7.80;99.90
21259;DHT22;10787;53.364;-1.480;2023-02-19T09:02:38;7.90;99.90
21259;DHT22;10787;53.364;-1.480;2023-02-19T09:05:04;7.90;99.90
21259;DHT22;10787;53.364;-1.480;2023-02-19T09:07:30;8.00;99.90
21259;DHT22;10787;53.364;-1.480;2023-02-19T09:09:56;8.10;99.90
21259;DHT22;10787;53.364;-1.480;2023-02-19T09:12:23;8.20;99.90
21259;DHT22;10787;53.364;-1.480;2023-02-19T09:14:49;8.20;99.90
21259;DHT22;10787;53.364;-1.480;2023-02-19T09:17:15;8.30;99.90
21259;DHT22;10787;53.364;-1.480;2023-02-19T09:19:41;8.30;99.90
21259;DHT22;10787;53.364;-1.480;2023-02-19T09:22:07;8.40;99.90
21259;DHT22;10787;53.364;-1.480;2023-02-19T09:24:32;8.40;99.90
21259;DHT22;10787;53.364;-1.480;2023-02-19T09:26:58;8.50;99.90
21259;DHT22;10787;53.364;-1.480;2023-02-19T09:29:25;8.60;99.90
21259;DHT22;10787;53.364;-1.480;2023-02-19T09:31:55;8.60;99.90
21259;DHT22;10787;53.364;-1.480;2023-02-19T09:34:23;8.70;99.90
21259;DHT22;10787;53.364;-1.480;2023-02-19T09:36:49;8.80;99.90
21259;DHT22;10787;53.364;-1.480;2023-02-19T09:39:15;8.90;99.90
21259;DHT22;10787;53.364;-1.480;2023-02-19T09:41:54;9.00;99.90
21259;DHT22;10787;53.364;-1.480;2023-02-19T09:44:33;9.20;99.90
21259;DHT22;10787;53.364;-1.480;2023-02-19T09:47:01;9.50;99.90
21259;DHT22;10787;53.364;-1.480;2023-02-19T09:49:30;9.60;99.90
21259;DHT22;10787;53.364;-1.480;2023-02-19T09:52:05;9.60;99.90
21259;DHT22;10787;53.364;-1.480;2023-02-19T09:54:33;9.60;99.90
21259;DHT22;10787;53.364;-1.480;2023-02-19T09:57:03;9.60;99.90
21259;DHT22;10787;53.364;-1.480;2023-02-19T09:59:58;9.70;99.90
21259;DHT22;10787;53.364;-1.480;2023-02-19T10:02:26;9.90;99.90
21259;DHT22;10787;53.364;-1.480;2023-02-19T10:04:54;9.90;99.90
21259;DHT22;10787;53.364;-1.480;2023-02-19T10:07:43;10.00;99.90
21259;DHT22;10787;53.364;-1.480;2023-02-19T10:12:45;10.20;99.90
21259;DHT22;10787;53.364;-1.480;2023-02-19T10:15:18;10.20;99.90
21259;DHT22;10787;53.364;-1.480;2023-02-19T10:17:47;10.20;99.90
21259;DHT22;10787;53.364;-1.480;2023-02-19T10:20:18;10.10;99.90
21259;DHT22;10787;53.364;-1.480;2023-02-19T10:22:44;9.90;99.90
21259;DHT22;10787;53.364;-1.480;2023-02-19T10:25:15;9.90;99.90
21259;DHT22;10787;53.364;-1.480;2023-02-19T10:27:41;9.90;99.90
21259;DHT22;10787;53.364;-1.480;2023-02-19T10:30:20;9.90;99.90
21259;DHT22;10787;53.364;-1.480;2023-02-19T10:33:00;10.00;99.90
21259;DHT22;10787;53.364;-1.480;2023-02-19T10:35:27;10.10;99.90
21259;DHT22;10787;53.364;-1.480;2023-02-19T10:37:54;10.40;99.90
21259;DHT22;10787;53.364;-1.480;2023-02-19T10:40:25;10.60;99.90
21259;DHT22;10787;53.364;-1.480;2023-02-19T10:43:02;10.80;99.90
21259;DHT22;10787;53.364;-1.480;2023-02-19T10:45:46;10.70;99.90
21259;DHT22;10787;53.364;-1.480;2023-02-19T10:48:31;10.80;99.90
21259;DHT22;10787;53.364;-1.480;2023-02-19T10:51:01;10.80;99.90
21259;DHT22;10787;53.364;-1.480;2023-02-19T10:54:02;10.80;99.90
21259;DHT22;10787;53.364;-1.480;2023-02-19T10:56:29;10.80;99.90
21259;DHT22;10787;53.364;-1.480;2023-02-19T11:02:16;10.80;99.90
21259;DHT22;10787;53.364;-1.480;2023-02-19T11:07:56;10.90;99.90
21259;DHT22;10787;53.364;-1.480;2023-02-19T11:13:02;11.10;99.90
21259;DHT22;10787;53.364;-1.480;2023-02-19T11:15:31;11.40;99.90
21259;DHT22;10787;53.364;-1.480;2023-02-19T11:20:49;12.10;99.90
21259;DHT22;10787;53.364;-1.480;2023-02-19T11:23:31;12.60;99.90
21259;DHT22;10787;53.364;-1.480;2023-02-19T11:26:02;13.10;99.90
21259;DHT22;10787;53.364;-1.480;2023-02-19T11:28:39;13.40;99.90
21259;DHT22;10787;53.364;-1.480;2023-02-19T11:36:47;12.70;99.90
21259;DHT22;10787;53.364;-1.480;2023-02-19T11:39:27;12.40;99.90
21259;DHT22;10787;53.364;-1.480;2023-02-19T11:56:36;11.10;99.90
21259;DHT22;10787;53.364;-1.480;2023-02-19T11:59:31;11.20;99.90
21259;DHT22;10787;53.364;-1.480;2023-02-19T12:02:19;11.30;99.90
21259;DHT22;10787;53.364;-1.480;2023-02-19T12:05:22;11.60;99.90
21259;DHT22;10787;53.364;-1.480;2023-02-19T12:19:08;12.80;99.90
21259;DHT22;10787;53.364;-1.480;2023-02-19T12:24:50;12.80;99.90
21259;DHT22;10787;53.364;-1.480;2023-02-19T12:43:23;12.70;99.90
21259;DHT22;10787;53.364;-1.480;2023-02-19T12:46:11;12.60;99.90
21259;DHT22;10787;53.364;-1.480;2023-02-19T12:51:26;12.70;99.90
21259;DHT22;10787;53.364;-1.480;2023-02-19T12:56:39;12.80;99.90
21259;DHT22;10787;53.364;-1.480;2023-02-19T12:59:23;12.80;99.90
21259;DHT22;10787;53.364;-1.480;2023-02-19T13:01:56;12.40;99.90
21259;DHT22;10787;53.364;-1.480;2023-02-19T13:04:45;12.20;99.90
21259;DHT22;10787;53.364;-1.480;2023-02-19T13:07:35;12.40;99.90
21259;DHT22;10787;53.364;-1.480;2023-02-19T13:10:32;12.80;99.90
21259;DHT22;10787;53.364;-1.480;2023-02-19T13:13:05;13.80;99.90
21259;DHT22;10787;53.364;-1.480;2023-02-19T13:15:41;14.80;99.90
21259;DHT22;10787;53.364;-1.480;2023-02-19T13:18:23;15.40;99.90
21259;DHT22;10787;53.364;-1.480;2023-02-19T13:20:50;15.90;99.90
21259;DHT22;10787;53.364;-1.480;2023-02-19T13:23:36;16.50;99.90
21259;DHT22;10787;53.364;-1.480;2023-02-19T13:36:45;16.80;99.90
21259;DHT22;10787;53.364;-1.480;2023-02-19T13:39:14;17.10;99.90
21259;DHT22;10787;53.364;-1.480;2023-02-19T13:41:54;17.70;99.90
21259;DHT22;10787;53.364;-1.480;2023-02-19T13:44:24;17.90;99.90
21259;DHT22;10787;53.364;-1.480;2023-02-19T13:46:51;17.60;99.90
21259;DHT22;10787;53.364;-1.480;2023-02-19T13:51:58;16.00;99.90
21259;DHT22;10787;53.364;-1.480;2023-02-19T13:54:34;15.40;99.90
21259;DHT22;10787;53.364;-1.480;2023-02-19T13:59:43;14.20;99.90
21259;DHT22;10787;53.364;-1.480;2023-02-19T14:14:50;14.10;99.90
21259;DHT22;10787;53.364;-1.480;2023-02-19T14:33:30;13.60;99.90
21259;DHT22;10787;53.364;-1.480;2023-02-19T14:38:43;13.50;99.90
21259;DHT22;10787;53.364;-1.480;2023-02-19T14:41:12;13.30;99.90
21259;DHT22;10787;53.364;-1.480;2023-02-19T14:43:40;13.10;99.90
21259;DHT22;10787;53.364;-1.480;2023-02-19T14:48:46;13.10;99.90
21259;DHT22;10787;53.364;-1.480;2023-02-19T14:51:29;13.20;99.90
21259;DHT22;10787;53.364;-1.480;2023-02-19T14:53:57;13.20;99.90
21259;DHT22;10787;53.364;-1.480;2023-02-19T14:56:27;13.20;99.90
21259;DHT22;10787;53.364;-1.480;2023-02-19T15:01:31;13.20;99.90
21259;DHT22;10787;53.364;-1.480;2023-02-19T15:03:56;13.10;99.90
21259;DHT22;10787;53.364;-1.480;2023-02-19T15:06:22;12.90;99.90
21259;DHT22;10787;53.364;-1.480;2023-02-19T15:08:51;12.90;99.90
21259;DHT22;10787;53.364;-1.480;2023-02-19T15:11:23;12.90;99.90
21259;DHT22;10787;53.364;-1.480;2023-02-19T15:13:53;12.80;99.90
21259;DHT22;10787;53.364;-1.480;2023-02-19T15:16:23;12.70;99.90
21259;DHT22;10787;53.364;-1.480;2023-02-19T15:18:50;12.50;99.90
21259;DHT22;10787;53.364;-1.480;2023-02-19T15:21:31;12.40;99.90
21259;DHT22;10787;53.364;-1.480;2023-02-19T15:24:01;12.40;99.90
21259;DHT22;10787;53.364;-1.480;2023-02-19T15:26:37;12.30;99.90
21259;DHT22;10787;53.364;-1.480;2023-02-19T15:29:17;12.10;99.90
21259;DHT22;10787;53.364;-1.480;2023-02-19T15:31:52;11.90;99.90
21259;DHT22;10787;53.364;-1.480;2023-02-19T15:36:48;11.90;99.90
21259;DHT22;10787;53.364;-1.480;2023-02-19T15:39:29;11.80;99.90
21259;DHT22;10787;53.364;-1.480;2023-02-19T15:41:57;11.70;99.90
21259;DHT22;10787;53.364;-1.480;2023-02-19T15:58:31;11.70;99.90
21259;DHT22;10787;53.364;-1.480;2023-02-19T16:01:06;11.70;99.90
21259;DHT22;10787;53.364;-1.480;2023-02-19T16:03:37;11.60;99.90
21259;DHT22;10787;53.364;-1.480;2023-02-19T16:06:15;11.60;99.90
21259;DHT22;10787;53.364;-1.480;2023-02-19T16:11:33;11.60;99.90
21259;DHT22;10787;53.364;-1.480;2023-02-19T16:14:30;11.60;99.90
21259;DHT22;10787;53.364;-1.480;2023-02-19T16:17:17;11.60;99.90
21259;DHT22;10787;53.364;-1.480;2023-02-19T16:19:55;11.60;99.90
21259;DHT22;10787;53.364;-1.480;2023-02-19T16:22:27;11.60;99.90
21259;DHT22;10787;53.364;-1.480;2023-02-19T16:25:03;11.70;99.90
21259;DHT22;10787;53.364;-1.480;2023-02-19T16:27:38;11.80;99.90
21259;DHT22;10787;53.364;-1.480;2023-02-19T16:32:43;11.90;99.90
21259;DHT22;10787;53.364;-1.480;2023-02-19T16:35:36;11.90;99.90
21259;DHT22;10787;53.364;-1.480;2023-02-19T16:38:12;11.70;99.90
21259;DHT22;10787;53.364;-1.480;2023-02-19T16:45:46;11.40;99.90
21259;DHT22;10787;53.364;-1.480;2023-02-19T16:48:12;11.30;99.90
21259;DHT22;10787;53.364;-1.480;2023-02-19T16:50:39;11.20;99.90
21259;DHT22;10787;53.364;-1.480;2023-02-19T16:53:21;11.20;99.90
21259;DHT22;10787;53.364;-1.480;2023-02-19T16:55:49;11.20;99.90
21259;DHT22;10787;53.364;-1.480;2023-02-19T16:58:15;11.10;99.90
21259;DHT22;10787;53.364;-1.480;2023-02-19T17:00:41;11.10;99.90
21259;DHT22;10787;53.364;-1.480;2023-02-19T17:03:10;11.10;99.90
21259;DHT22;10787;53.364;-1.480;2023-02-19T17:05:38;11.10;99.90
21259;DHT22;10787;53.364;-1.480;2023-02-19T17:08:34;11.10;99.90
21259;DHT22;10787;53.364;-1.480;2023-02-19T17:11:06;11.10;99.90
21259;DHT22;10787;53.364;-1.480;2023-02-19T17:13:34;11.10;99.90
21259;DHT22;10787;53.364;-1.480;2023-02-19T17:16:00;11.00;99.90
21259;DHT22;10787;53.364;-1.480;2023-02-19T17:18:26;11.00;99.90
21259;DHT22;10787;53.364;-1.480;2023-02-19T17:20:57;10.90;99.90
21259;DHT22;10787;53.364;-1.480;2023-02-19T17:23:24;10.80;99.90
21259;DHT22;10787;53.364;-1.480;2023-02-19T17:25:50;10.70;99.90
21259;DHT22;10787;53.364;-1.480;2023-02-19T17:28:16;10.70;99.90
21259;DHT22;10787;53.364;-1.480;2023-02-19T17:30:42;10.60;99.90
21259;DHT22;10787;53.364;-1.480;2023-02-19T17:33:08;10.50;99.90
21259;DHT22;10787;53.364;-1.480;2023-02-19T17:35:34;10.40;99.90
21259;DHT22;10787;53.364;-1.480;2023-02-19T17:38:00;10.40;99.90
21259;DHT22;10787;53.364;-1.480;2023-02-19T17:40:29;10.30;99.90
21259;DHT22;10787;53.364;-1.480;2023-02-19T17:42:56;10.30;99.90
21259;DHT22;10787;53.364;-1.480;2023-02-19T17:45:22;10.20;99.90
21259;DHT22;10787;53.364;-1.480;2023-02-19T17:47:49;10.10;99.90
21259;DHT22;10787;53.364;-1.480;2023-02-19T17:50:17;10.10;99.90
21259;DHT22;10787;53.364;-1.480;2023-02-19T17:52:43;10.00;99.90
21259;DHT22;10787;53.364;-1.480;2023-02-19T17:55:11;9.90;99.90
21259;DHT22;10787;53.364;-1.480;2023-02-19T17:57:37;9.90;99.90
21259;DHT22;10787;53.364;-1.480;2023-02-19T18:00:04;9.80;99.90
21259;DHT22;10787;53.364;-1.480;2023-02-19T18:02:33;9.80;99.90
21259;DHT22;10787;53.364;-1.480;2023-02-19T18:05:00;9.70;99.90
21259;DHT22;10787;53.364;-1.480;2023-02-19T18:07:27;9.70;99.90
21259;DHT22;10787;53.364;-1.480;2023-02-19T18:09:53;9.70;99.90
21259;DHT22;10787;53.364;-1.480;2023-02-19T18:12:19;9.60;99.90
21259;DHT22;10787;53.364;-1.480;2023-02-19T18:14:45;9.60;99.90
21259;DHT22;10787;53.364;-1.480;2023-02-19T18:17:12;9.50;99.90
21259;DHT22;10787;53.364;-1.480;2023-02-19T18:19:46;9.50;99.90
21259;DHT22;10787;53.364;-1.480;2023-02-19T18:22:11;9.50;99.90
21259;DHT22;10787;53.364;-1.480;2023-02-19T18:24:37;9.40;99.90
21259;DHT22;10787;53.364;-1.480;2023-02-19T18:27:03;9.40;99.90
21259;DHT22;10787;53.364;-1.480;2023-02-19T18:29:29;9.30;99.90
21259;DHT22;10787;53.364;-1.480;2023-02-19T18:31:55;9.30;99.90
21259;DHT22;10787;53.364;-1.480;2023-02-19T18:34:21;9.30;99.90
21259;DHT22;10787;53.364;-1.480;2023-02-19T18:36:48;9.30;99.90
21259;DHT22;10787;53.364;-1.480;2023-02-19T18:39:14;9.20;99.90
21259;DHT22;10787;53.364;-1.480;2023-02-19T18:41:40;9.20;99.90
21259;DHT22;10787;53.364;-1.480;2023-02-19T18:44:10;9.20;99.90
21259;DHT22;10787;53.364;-1.480;2023-02-19T18:46:36;9.20;99.90
21259;DHT22;10787;53.364;-1.480;2023-02-19T18:49:02;9.10;99.90